createdAt,value
2023-05-29T00:00:39.029Z,101345.41
2023-05-29T00:02:45.461Z,101348.09
2023-05-29T00:04:47.499Z,101356.25
2023-05-29T00:06:49.241Z,101350.88
2023-05-29T00:08:51.154Z,101348.31
2023-05-29T00:10:52.748Z,101350.13
2023-05-29T00:12:57.078Z,101360.00
2023-05-29T00:14:58.794Z,101354.75
2023-05-29T00:17:00.531Z,101361.13
2023-05-29T00:19:02.124Z,101361.97
2023-05-29T00:21:03.916Z,101359.38
2023-05-29T00:23:07.057Z,101359.38
2023-05-29T00:25:10.717Z,101360.38
2023-05-29T00:27:13.313Z,101352.47
2023-05-29T00:29:15.590Z,101362.47
2023-05-29T00:31:17.205Z,101361.47
2023-05-29T00:33:19.756Z,101363.31
2023-05-29T00:35:21.510Z,101359.78
2023-05-29T00:37:23.706Z,101359.91
2023-05-29T00:39:25.683Z,101362.59
2023-05-29T00:41:27.344Z,101357.34
2023-05-29T00:43:29.297Z,101352.13
2023-05-29T00:45:31.945Z,101346.88
2023-05-29T00:47:33.676Z,101359.28
2023-05-29T00:49:37.149Z,101354.06
2023-05-29T00:51:39.466Z,101349.69
2023-05-29T00:53:42.124Z,101346.16
2023-05-29T00:55:43.899Z,101348.94
2023-05-29T00:57:47.878Z,101348.09
2023-05-29T00:59:49.779Z,101341.06
2023-05-29T01:01:51.950Z,101341.16
2023-05-29T01:03:58.187Z,101342.16
2023-05-29T01:05:59.767Z,101343.09
2023-05-29T01:08:01.561Z,101341.41
2023-05-29T01:10:03.889Z,101343.25
2023-05-29T01:12:21.492Z,101333.50
2023-05-29T01:14:30.964Z,101341.66
2023-05-29T01:16:49.055Z,101330.09
2023-05-29T01:19:41.619Z,101334.72
2023-05-29T01:21:57.763Z,101333.00
2023-05-29T01:24:25.523Z,101324.22
2023-05-29T01:26:49.830Z,101327.06
2023-05-29T01:28:54.021Z,101330.72
2023-05-29T01:30:58.414Z,101329.88
2023-05-29T01:33:00.553Z,101335.34
2023-05-29T01:35:02.190Z,101326.44
2023-05-29T01:37:04.116Z,101333.66
2023-05-29T01:39:06.548Z,101328.41
2023-05-29T01:41:08.396Z,101341.78
2023-05-29T01:43:11.052Z,101340.09
2023-05-29T01:45:13.191Z,101341.94
2023-05-29T01:47:15.891Z,101338.50
2023-05-29T01:49:17.763Z,101335.97
2023-05-29T01:51:19.378Z,101339.59
2023-05-29T01:53:21.242Z,101336.94
2023-05-29T01:55:22.854Z,101335.38
2023-05-29T01:57:25.180Z,101345.09
2023-05-29T01:59:27.557Z,101339.84
2023-05-29T02:01:29.397Z,101333.66
2023-05-29T02:03:31.246Z,101342.66
2023-05-29T02:05:32.849Z,101342.78
2023-05-29T02:07:35.089Z,101352.66
2023-05-29T02:09:37.141Z,101342.06
2023-05-29T02:11:38.790Z,101347.44
2023-05-29T02:13:40.537Z,101348.41
2023-05-29T02:15:42.539Z,101341.31
2023-05-29T02:17:45.377Z,101345.00
2023-05-29T02:19:47.330Z,101338.88
2023-05-29T02:21:49.896Z,101346.09
2023-05-29T02:23:51.511Z,101341.72
2023-05-29T02:25:53.254Z,101339.97
2023-05-29T02:27:54.975Z,101340.13
2023-05-29T02:29:56.674Z,101340.97
2023-05-29T02:31:58.383Z,101341.94
2023-05-29T02:34:00.180Z,101339.28
2023-05-29T02:36:01.908Z,101353.66
2023-05-29T02:38:03.600Z,101342.19
2023-05-29T02:40:06.700Z,101345.72
2023-05-29T02:42:08.288Z,101351.22
2023-05-29T02:44:09.989Z,101349.50
2023-05-29T02:46:11.756Z,101351.28
2023-05-29T02:48:13.402Z,101349.59
2023-05-29T02:50:15.894Z,101353.22
2023-05-29T02:52:17.526Z,101352.38
2023-05-29T02:54:19.131Z,101356.03
2023-05-29T02:56:24.864Z,101350.69
2023-05-29T02:58:26.460Z,101348.09
2023-05-29T03:00:29.639Z,101352.63
2023-05-29T03:02:31.610Z,101353.59
2023-05-29T03:04:33.279Z,101350.94
2023-05-29T03:06:35.017Z,101355.53
2023-05-29T03:08:41.281Z,101359.19
2023-05-29T03:10:44.755Z,101370.75
2023-05-29T03:12:46.448Z,101367.38
2023-05-29T03:14:48.096Z,101367.47
2023-05-29T03:16:50.375Z,101370.16
2023-05-29T03:18:52.234Z,101373.91
2023-05-29T03:20:55.317Z,101371.25
2023-05-29T03:22:57.611Z,101368.69
2023-05-29T03:24:59.395Z,101380.38
2023-05-29T03:27:01.531Z,101379.50
2023-05-29T03:29:03.544Z,101379.66
2023-05-29T03:31:05.348Z,101386.00
2023-05-29T03:33:07.086Z,101386.09
2023-05-29T03:35:09.461Z,101389.63
2023-05-29T03:37:11.278Z,101382.56
2023-05-29T03:39:13.253Z,101386.22
2023-05-29T03:41:14.902Z,101393.50
2023-05-29T03:43:16.514Z,101383.78
2023-05-29T03:45:18.362Z,101389.97
2023-05-29T03:47:20.194Z,101382.06
2023-05-29T03:49:21.781Z,101385.72
2023-05-29T03:51:23.416Z,101391.06
2023-05-29T03:53:25.058Z,101389.38
2023-05-29T03:55:28.106Z,101393.88
2023-05-29T03:57:29.882Z,101397.50
2023-05-29T03:59:31.520Z,101394.81
2023-05-29T04:01:33.151Z,101394.97
2023-05-29T04:03:35.077Z,101401.25
2023-05-29T04:05:36.752Z,101396.91
2023-05-29T04:07:43.058Z,101399.72
2023-05-29T04:09:44.726Z,101398.84
2023-05-29T04:11:47.176Z,101407.84
2023-05-29T04:13:49.350Z,101415.03
2023-05-29T04:15:54.407Z,101410.66
2023-05-29T04:17:56.341Z,101420.50
2023-05-29T04:19:57.985Z,101419.63
2023-05-29T04:21:59.779Z,101424.97
2023-05-29T04:24:01.718Z,101421.47
2023-05-29T04:26:03.504Z,101425.22
2023-05-29T04:28:05.166Z,101430.56
2023-05-29T04:30:07.980Z,101428.88
2023-05-29T04:32:12.114Z,101429.84
2023-05-29T04:34:18.200Z,101430.84
2023-05-29T04:36:20.544Z,101440.66
2023-05-29T04:38:26.197Z,101439.81
2023-05-29T04:40:28.235Z,101443.47
2023-05-29T04:42:34.710Z,101456.84
2023-05-29T04:44:36.552Z,101455.16
2023-05-29T04:46:39.209Z,101462.31
2023-05-29T04:48:41.707Z,101452.56
2023-05-29T04:50:43.406Z,101467.78
2023-05-29T04:52:45.249Z,101466.09
2023-05-29T04:54:47.021Z,101466.19
2023-05-29T04:56:48.913Z,101460.84
2023-05-29T04:58:51.129Z,101452.94
2023-05-29T05:00:52.880Z,101465.47
2023-05-29T05:02:54.919Z,101458.38
2023-05-29T05:04:56.650Z,101466.56
2023-05-29T05:06:58.384Z,101464.72
2023-05-29T05:09:00.131Z,101455.00
2023-05-29T05:11:02.565Z,101463.03
2023-05-29T05:13:04.346Z,101457.03
2023-05-29T05:15:06.790Z,101462.28
2023-05-29T05:17:08.383Z,101469.56
2023-05-29T05:19:10.074Z,101463.34
2023-05-29T05:21:12.683Z,101465.19
2023-05-29T05:23:14.372Z,101466.25
2023-05-29T05:25:16.242Z,101467.09
2023-05-29T05:27:17.933Z,101466.25
2023-05-29T05:29:20.835Z,101469.91
2023-05-29T05:31:23.323Z,101489.63
2023-05-29T05:33:25.040Z,101470.88
2023-05-29T05:35:26.667Z,101481.59
2023-05-29T05:37:28.327Z,101487.88
2023-05-29T05:39:29.922Z,101478.22
2023-05-29T05:41:31.488Z,101480.06
2023-05-29T05:43:33.721Z,101478.34
2023-05-29T05:45:35.494Z,101482.84
2023-05-29T05:47:37.213Z,101487.38
2023-05-29T05:49:38.888Z,101492.81
2023-05-29T05:51:40.592Z,101494.63
2023-05-29T05:53:42.250Z,101491.13
2023-05-29T05:55:44.360Z,101491.13
2023-05-29T05:57:46.216Z,101495.63
2023-05-29T05:59:47.778Z,101492.19
2023-05-29T06:01:49.359Z,101486.84
2023-05-29T06:03:51.045Z,101495.84
2023-05-29T06:05:53.686Z,101496.78
2023-05-29T06:07:55.529Z,101495.09
2023-05-29T06:09:57.108Z,101503.09
2023-05-29T06:11:58.775Z,101508.47
2023-05-29T06:14:00.814Z,101502.38
2023-05-29T06:16:02.482Z,101505.06
2023-05-29T06:18:06.525Z,101507.84
2023-05-29T06:20:11.957Z,101502.59
2023-05-29T06:22:14.707Z,101511.59
2023-05-29T06:24:16.316Z,101508.91
2023-05-29T06:26:17.987Z,101513.41
2023-05-29T06:28:19.696Z,101520.47
2023-05-29T06:30:21.379Z,101518.88
2023-05-29T06:32:23.321Z,101518.00
2023-05-29T06:34:25.038Z,101517.16
2023-05-29T06:36:26.848Z,101527.84
2023-05-29T06:38:28.564Z,101531.38
2023-05-29T06:40:30.186Z,101531.50
2023-05-29T06:42:33.691Z,101527.97
2023-05-29T06:44:35.626Z,101528.06
2023-05-29T06:46:37.243Z,101530.88
2023-05-29T06:48:39.227Z,101527.34
2023-05-29T06:50:40.926Z,101530.88
2023-05-29T06:52:42.702Z,101533.53
2023-05-29T06:54:44.392Z,101539.75
2023-05-29T06:56:50.298Z,101535.38
2023-05-29T06:58:57.005Z,101550.56
2023-05-29T07:01:01.604Z,101538.06
2023-05-29T07:03:05.175Z,101541.66
2023-05-29T07:05:07.121Z,101546.16
2023-05-29T07:07:08.719Z,101551.50
2023-05-29T07:09:10.637Z,101546.16
2023-05-29T07:11:12.352Z,101545.31
2023-05-29T07:13:16.442Z,101545.31
2023-05-29T07:15:18.186Z,101537.28
2023-05-29T07:17:19.853Z,101546.28
2023-05-29T07:19:22.225Z,101538.28
2023-05-29T07:21:23.892Z,101535.59
2023-05-29T07:23:27.764Z,101533.78
2023-05-29T07:25:30.540Z,101540.94
2023-05-29T07:27:32.150Z,101542.78
2023-05-29T07:29:33.863Z,101543.72
2023-05-29T07:31:35.617Z,101549.91
2023-05-29T07:33:37.245Z,101549.06
2023-05-29T07:35:38.879Z,101548.22
2023-05-29T07:37:40.745Z,101548.22
2023-05-29T07:39:43.677Z,101547.22
2023-05-29T07:41:45.465Z,101544.56
2023-05-29T07:43:51.811Z,101546.38
2023-05-29T07:45:53.490Z,101539.22
2023-05-29T07:47:55.782Z,101543.84
2023-05-29T07:49:57.641Z,101544.56
2023-05-29T07:51:59.274Z,101543.63
2023-05-29T07:54:01.035Z,101549.91
2023-05-29T07:56:02.690Z,101547.22
2023-05-29T07:58:04.498Z,101552.59
2023-05-29T08:00:07.119Z,101548.97
2023-05-29T08:02:09.662Z,101541.78
2023-05-29T08:04:11.961Z,101545.44
2023-05-29T08:06:13.673Z,101539.44
2023-05-29T08:08:16.411Z,101546.50
2023-05-29T08:10:18.098Z,101546.38
2023-05-29T08:12:19.716Z,101549.06
2023-05-29T08:14:21.452Z,101535.69
2023-05-29T08:16:23.441Z,101543.72
2023-05-29T08:18:28.420Z,101537.50
2023-05-29T08:20:30.172Z,101549.91
2023-05-29T08:22:32.038Z,101546.38
2023-05-29T08:24:33.924Z,101542.78
2023-05-29T08:26:36.097Z,101539.22
2023-05-29T08:28:39.175Z,101543.72
2023-05-29T08:30:42.812Z,101550.78
2023-05-29T08:32:44.481Z,101545.44
2023-05-29T08:34:46.676Z,101554.31
2023-05-29T08:36:49.687Z,101548.22
2023-05-29T08:38:51.376Z,101552.59
2023-05-29T08:40:53.337Z,101553.56
2023-05-29T08:43:01.421Z,101555.38
2023-05-29T08:45:05.565Z,101555.38
2023-05-29T08:47:08.226Z,101549.19
2023-05-29T08:49:10.486Z,101559.88
2023-05-29T08:51:13.334Z,101550.88
2023-05-29T08:53:16.316Z,101546.38
2023-05-29T08:55:18.103Z,101546.38
2023-05-29T08:57:21.740Z,101545.53
2023-05-29T08:59:23.839Z,101549.91
2023-05-29T09:01:26.623Z,101548.13
2023-05-29T09:03:28.678Z,101541.03
2023-05-29T09:05:30.662Z,101548.13
2023-05-29T09:07:32.557Z,101557.00
2023-05-29T09:09:34.145Z,101550.78
2023-05-29T09:11:35.958Z,101550.88
2023-05-29T09:13:37.874Z,101552.59
2023-05-29T09:15:41.409Z,101555.25
2023-05-29T09:17:43.046Z,101554.41
2023-05-29T09:19:46.135Z,101561.50
2023-05-29T09:21:48.063Z,101561.50
2023-05-29T09:23:53.186Z,101561.59
2023-05-29T09:25:55.338Z,101557.09
2023-05-29T09:27:59.245Z,101559.75
2023-05-29T09:30:01.604Z,101561.50
2023-05-29T09:32:08.668Z,101552.59
2023-05-29T09:34:10.464Z,101558.81
2023-05-29T09:36:22.205Z,101556.13
2023-05-29T09:38:38.414Z,101554.31
2023-05-29T09:40:48.637Z,101556.00
2023-05-29T09:42:50.481Z,101554.31
2023-05-29T09:44:52.990Z,101548.84
2023-05-29T09:46:59.207Z,101547.16
2023-05-29T09:49:03.264Z,101550.78
2023-05-29T09:51:04.938Z,101551.63
2023-05-29T09:53:25.684Z,101542.66
2023-05-29T09:55:29.622Z,101548.13
2023-05-29T09:57:31.635Z,101539.22
2023-05-29T09:59:34.384Z,101547.16
2023-05-29T10:01:36.615Z,101546.28
2023-05-29T10:03:38.392Z,101546.28
2023-05-29T10:05:41.068Z,101551.63
2023-05-29T10:07:52.603Z,101561.38
2023-05-29T10:10:02.924Z,101553.34
2023-05-29T10:12:08.980Z,101556.00
2023-05-29T10:14:13.267Z,101535.47
2023-05-29T10:16:16.723Z,101540.94
2023-05-29T10:18:22.870Z,101541.66
2023-05-29T10:20:24.834Z,101544.34
2023-05-29T10:22:28.081Z,101530.13
2023-05-29T10:24:29.951Z,101547.03
2023-05-29T10:26:32.989Z,101550.66
2023-05-29T10:28:34.694Z,101540.09
2023-05-29T10:30:44.650Z,101541.78
2023-05-29T10:33:28.606Z,101526.72
2023-05-29T10:35:43.916Z,101525.84
2023-05-29T10:37:53.618Z,101533.00
2023-05-29T10:40:06.353Z,101538.50
2023-05-29T10:42:43.443Z,101532.06
2023-05-29T10:44:46.026Z,101538.38
2023-05-29T10:46:49.462Z,101542.00
2023-05-29T10:48:51.400Z,101542.00
2023-05-29T10:50:53.182Z,101526.81
2023-05-29T10:52:54.768Z,101525.84
2023-05-29T10:54:58.097Z,101531.19
2023-05-29T10:57:02.417Z,101532.06
2023-05-29T10:59:04.442Z,101529.41
2023-05-29T11:01:06.387Z,101526.72
2023-05-29T11:03:08.682Z,101525.75
2023-05-29T11:05:25.397Z,101522.09
2023-05-29T11:07:34.366Z,101522.09
2023-05-29T11:09:38.567Z,101519.41
2023-05-29T11:11:42.947Z,101515.03
2023-05-29T11:13:53.389Z,101524.03
2023-05-29T11:16:14.437Z,101514.19
2023-05-29T11:18:16.156Z,101520.41
2023-05-29T11:20:37.889Z,101521.25
2023-05-29T11:22:45.384Z,101522.31
2023-05-29T11:24:47.005Z,101513.44
2023-05-29T11:26:49.012Z,101517.81
2023-05-29T11:28:50.932Z,101521.38
2023-05-29T11:30:55.182Z,101507.03
2023-05-29T11:33:02.556Z,101509.69
2023-05-29T11:35:09.268Z,101508.00
2023-05-29T11:37:12.565Z,101499.97
2023-05-29T11:39:14.934Z,101502.66
2023-05-29T11:41:18.268Z,101502.53
2023-05-29T11:43:20.193Z,101501.66
2023-05-29T11:45:22.699Z,101491.94
2023-05-29T11:47:25.391Z,101499.84
2023-05-29T11:49:32.876Z,101496.31
2023-05-29T11:51:34.500Z,101495.34
2023-05-29T11:53:36.244Z,101504.22
2023-05-29T11:55:37.930Z,101492.56
2023-05-29T11:57:39.715Z,101496.09
2023-05-29T11:59:43.402Z,101500.47
2023-05-29T12:01:45.077Z,101488.06
2023-05-29T12:03:46.729Z,101490.63
2023-05-29T12:05:50.591Z,101491.59
2023-05-29T12:07:54.012Z,101485.50
2023-05-29T12:09:58.649Z,101485.28
2023-05-29T12:12:06.863Z,101489.78
2023-05-29T12:14:08.432Z,101489.78
2023-05-29T12:16:10.081Z,101484.34
2023-05-29T12:18:12.397Z,101488.72
2023-05-29T12:20:15.202Z,101480.78
2023-05-29T12:22:16.994Z,101482.50
2023-05-29T12:24:24.769Z,101477.88
2023-05-29T12:26:31.576Z,101478.75
2023-05-29T12:28:33.525Z,101481.44
2023-05-29T12:30:39.639Z,101471.47
2023-05-29T12:32:43.433Z,101470.72
2023-05-29T12:34:50.124Z,101483.13
2023-05-29T12:36:51.841Z,101486.56
2023-05-29T12:38:53.926Z,101478.53
2023-05-29T12:40:55.765Z,101480.22
2023-05-29T12:43:00.628Z,101477.66
2023-05-29T12:45:05.335Z,101474.88
2023-05-29T12:47:07.165Z,101471.13
2023-05-29T12:49:15.912Z,101477.34
2023-05-29T12:51:23.257Z,101480.84
2023-05-29T12:53:29.666Z,101478.06
2023-05-29T12:55:39.543Z,101475.50
2023-05-29T12:57:41.943Z,101474.66
2023-05-29T12:59:43.559Z,101470.16
2023-05-29T13:01:45.422Z,101482.69
2023-05-29T13:03:47.245Z,101479.03
2023-05-29T13:05:48.941Z,101473.69
2023-05-29T13:07:51.839Z,101477.09
2023-05-29T13:09:53.491Z,101475.28
2023-05-29T13:11:55.192Z,101478.81
2023-05-29T13:13:56.772Z,101472.47
2023-05-29T13:15:58.662Z,101475.06
2023-05-29T13:18:00.868Z,101481.38
2023-05-29T13:20:02.938Z,101488.44
2023-05-29T13:22:04.719Z,101477.72
2023-05-29T13:24:06.530Z,101475.91
2023-05-29T13:26:08.225Z,101474.94
2023-05-29T13:28:09.932Z,101465.97
2023-05-29T13:30:12.309Z,101467.66
2023-05-29T13:32:13.994Z,101477.50
2023-05-29T13:34:15.646Z,101465.72
2023-05-29T13:36:17.279Z,101466.59
2023-05-29T13:38:18.925Z,101466.47
2023-05-29T13:40:20.672Z,101460.28
2023-05-29T13:42:22.858Z,101458.44
2023-05-29T13:44:24.467Z,101456.63
2023-05-29T13:46:27.908Z,101471.84
2023-05-29T13:48:29.612Z,101461.97
2023-05-29T13:50:31.233Z,101474.41
2023-05-29T13:52:32.960Z,101460.91
2023-05-29T13:54:36.792Z,101456.41
2023-05-29T13:56:38.425Z,101459.19
2023-05-29T13:58:40.084Z,101467.84
2023-05-29T14:00:42.110Z,101458.00
2023-05-29T14:02:43.770Z,101467.84
2023-05-29T14:04:45.446Z,101456.16
2023-05-29T14:06:47.068Z,101460.56
2023-05-29T14:08:48.684Z,101460.44
2023-05-29T14:10:51.946Z,101456.91
2023-05-29T14:12:53.543Z,101455.09
2023-05-29T14:14:55.165Z,101466.56
2023-05-29T14:16:57.165Z,101465.56
2023-05-29T14:18:59.330Z,101449.50
2023-05-29T14:21:01.250Z,101456.56
2023-05-29T14:23:02.953Z,101444.16
2023-05-29T14:25:05.222Z,101460.97
2023-05-29T14:27:07.151Z,101463.66
2023-05-29T14:29:14.133Z,101452.09
2023-05-29T14:31:16.700Z,101441.25
2023-05-29T14:33:18.378Z,101450.13
2023-05-29T14:35:20.107Z,101456.25
2023-05-29T14:37:21.739Z,101451.72
2023-05-29T14:39:23.391Z,101449.06
2023-05-29T14:41:26.596Z,101453.44
2023-05-29T14:43:28.269Z,101455.16
2023-05-29T14:45:30.004Z,101454.19
2023-05-29T14:47:31.635Z,101455.88
2023-05-29T14:49:34.678Z,101451.38
2023-05-29T14:51:37.522Z,101441.53
2023-05-29T14:53:39.382Z,101446.75
2023-05-29T14:55:40.940Z,101442.38
2023-05-29T14:57:42.641Z,101449.44
2023-05-29T14:59:44.255Z,101449.44
2023-05-29T15:01:46.222Z,101445.78
2023-05-29T15:03:48.033Z,101445.91
2023-05-29T15:05:49.883Z,101453.81
2023-05-29T15:07:51.505Z,101464.44
2023-05-29T15:09:53.412Z,101465.28
2023-05-29T15:11:55.678Z,101460.03
2023-05-29T15:13:57.442Z,101459.91
2023-05-29T15:16:03.980Z,101453.59
2023-05-29T15:18:05.906Z,101449.06
2023-05-29T15:20:08.898Z,101450.06
2023-05-29T15:22:10.645Z,101450.06
2023-05-29T15:24:12.231Z,101459.91
2023-05-29T15:26:13.867Z,101467.94
2023-05-29T15:28:15.690Z,101451.88
2023-05-29T15:30:19.976Z,101442.03
2023-05-29T15:32:21.618Z,101449.22
2023-05-29T15:34:23.325Z,101449.22
2023-05-29T15:36:24.965Z,101444.69
2023-05-29T15:38:27.391Z,101442.03
2023-05-29T15:40:29.119Z,101450.19
2023-05-29T15:42:30.984Z,101450.06
2023-05-29T15:44:32.731Z,101442.88
2023-05-29T15:46:34.403Z,101442.88
2023-05-29T15:48:36.359Z,101448.13
2023-05-29T15:50:38.118Z,101453.59
2023-05-29T15:52:50.966Z,101446.53
2023-05-29T15:54:56.845Z,101450.06
2023-05-29T15:57:01.180Z,101464.44
2023-05-29T15:59:03.958Z,101462.59
2023-05-29T16:01:05.860Z,101447.50
2023-05-29T16:03:07.813Z,101438.50
2023-05-29T16:05:09.961Z,101457.25
2023-05-29T16:07:11.550Z,101445.78
2023-05-29T16:09:15.200Z,101445.91
2023-05-29T16:11:16.840Z,101441.19
2023-05-29T16:13:20.115Z,101434.00
2023-05-29T16:15:21.924Z,101437.66
2023-05-29T16:17:23.585Z,101438.50
2023-05-29T16:19:25.296Z,101443.84
2023-05-29T16:21:27.126Z,101440.31
2023-05-29T16:23:28.891Z,101445.78
2023-05-29T16:25:31.261Z,101452.88
2023-05-29T16:27:33.377Z,101443.97
2023-05-29T16:29:35.159Z,101447.50
2023-05-29T16:31:37.934Z,101447.50
2023-05-29T16:33:40.296Z,101452.88
2023-05-29T16:35:41.978Z,101446.75
2023-05-29T16:37:44.004Z,101442.16
2023-05-29T16:39:45.638Z,101446.63
2023-05-29T16:41:47.294Z,101436.91
2023-05-29T16:43:49.087Z,101442.25
2023-05-29T16:45:51.663Z,101445.91
2023-05-29T16:47:53.451Z,101440.56
2023-05-29T16:49:55.660Z,101456.63
2023-05-29T16:51:57.294Z,101461.13
2023-05-29T16:53:58.983Z,101450.53
2023-05-29T16:56:00.750Z,101451.38
2023-05-29T16:58:02.418Z,101459.41
2023-05-29T17:00:04.425Z,101464.75
2023-05-29T17:02:06.779Z,101464.75
2023-05-29T17:04:09.990Z,101464.88
2023-05-29T17:06:12.898Z,101467.56
2023-05-29T17:08:14.611Z,101466.72
2023-05-29T17:10:18.215Z,101474.75
2023-05-29T17:12:19.825Z,101460.50
2023-05-29T17:14:21.596Z,101465.88
2023-05-29T17:16:23.257Z,101465.13
2023-05-29T17:18:24.936Z,101461.59
2023-05-29T17:20:27.685Z,101460.59
2023-05-29T17:22:29.572Z,101458.06
2023-05-29T17:24:31.523Z,101474.13
2023-05-29T17:26:33.104Z,101471.44
2023-05-29T17:28:34.662Z,101477.88
2023-05-29T17:30:37.432Z,101463.66
2023-05-29T17:32:39.166Z,101467.16
2023-05-29T17:34:41.394Z,101469.84
2023-05-29T17:36:42.996Z,101479.69
2023-05-29T17:38:44.755Z,101477.03
2023-05-29T17:40:46.592Z,101474.44
2023-05-29T17:42:48.244Z,101478.94
2023-05-29T17:44:49.886Z,101472.75
2023-05-29T17:46:52.309Z,101471.91
2023-05-29T17:48:54.138Z,101475.53
2023-05-29T17:50:55.812Z,101473.81
2023-05-29T17:52:57.615Z,101476.41
2023-05-29T17:54:59.339Z,101484.44
2023-05-29T17:57:02.812Z,101471.16
2023-05-29T17:59:05.318Z,101483.56
2023-05-29T18:01:07.709Z,101480.03
2023-05-29T18:03:09.464Z,101478.34
2023-05-29T18:05:11.919Z,101485.50
2023-05-29T18:07:16.945Z,101481.97
2023-05-29T18:09:18.630Z,101484.75
2023-05-29T18:11:21.684Z,101481.22
2023-05-29T18:13:23.486Z,101487.66
2023-05-29T18:15:25.241Z,101485.00
2023-05-29T18:17:26.921Z,101484.13
2023-05-29T18:19:28.984Z,101489.63
2023-05-29T18:21:30.645Z,101488.75
2023-05-29T18:23:33.168Z,101477.09
2023-05-29T18:25:38.014Z,101478.91
2023-05-29T18:27:39.725Z,101473.56
2023-05-29T18:29:41.404Z,101471.84
2023-05-29T18:31:43.009Z,101472.81
2023-05-29T18:33:45.524Z,101471.09
2023-05-29T18:35:47.282Z,101483.56
2023-05-29T18:37:50.989Z,101488.09
2023-05-29T18:39:52.801Z,101476.53
2023-05-29T18:41:54.369Z,101485.53
2023-05-29T18:43:57.436Z,101488.22
2023-05-29T18:45:59.412Z,101496.34
2023-05-29T18:48:01.024Z,101484.78
2023-05-29T18:50:02.713Z,101488.44
2023-05-29T18:52:04.544Z,101493.03
2023-05-29T18:54:08.330Z,101502.88
2023-05-29T18:56:10.070Z,101509.94
2023-05-29T18:58:13.408Z,101517.13
2023-05-29T19:00:16.100Z,101513.72
2023-05-29T19:02:18.157Z,101501.28
2023-05-29T19:04:20.109Z,101507.47
2023-05-29T19:06:21.853Z,101509.44
2023-05-29T19:08:23.965Z,101517.47
2023-05-29T19:10:26.147Z,101515.75
2023-05-29T19:12:30.595Z,101523.78
2023-05-29T19:14:32.380Z,101531.06
2023-05-29T19:16:34.060Z,101525.81
2023-05-29T19:18:36.586Z,101528.47
2023-05-29T19:20:38.403Z,101519.59
2023-05-29T19:22:40.787Z,101529.47
2023-05-29T19:24:42.527Z,101532.13
2023-05-29T19:26:45.343Z,101531.38
2023-05-29T19:28:49.088Z,101527.84
2023-05-29T19:30:51.672Z,101526.03
2023-05-29T19:32:53.630Z,101527.00
2023-05-29T19:34:55.681Z,101523.47
2023-05-29T19:36:57.521Z,101523.56
2023-05-29T19:39:00.021Z,101525.31
2023-05-29T19:41:01.819Z,101529.06
2023-05-29T19:43:04.974Z,101526.50
2023-05-29T19:45:07.412Z,101537.19
2023-05-29T19:47:09.212Z,101551.44
2023-05-29T19:49:11.383Z,101541.66
2023-05-29T19:51:13.107Z,101557.72
2023-05-29T19:53:15.665Z,101544.47
2023-05-29T19:55:17.510Z,101551.63
2023-05-29T19:57:20.468Z,101561.38
2023-05-29T19:59:22.460Z,101564.16
2023-05-29T20:01:24.641Z,101568.63
2023-05-29T20:03:26.859Z,101570.47
2023-05-29T20:05:28.637Z,101572.28
2023-05-29T20:07:30.315Z,101580.44
2023-05-29T20:09:31.984Z,101583.09
2023-05-29T20:11:33.642Z,101589.41
2023-05-29T20:13:35.591Z,101586.84
2023-05-29T20:15:37.264Z,101587.81
2023-05-29T20:17:39.211Z,101586.00
2023-05-29T20:19:43.451Z,101588.75
2023-05-29T20:21:45.158Z,101596.91
2023-05-29T20:23:47.002Z,101588.03
2023-05-29T20:25:48.549Z,101591.66
2023-05-29T20:27:50.290Z,101601.50
2023-05-29T20:29:52.261Z,101599.78
2023-05-29T20:31:55.747Z,101602.47
2023-05-29T20:33:57.523Z,101604.28
2023-05-29T20:35:59.729Z,101611.44
2023-05-29T20:38:02.283Z,101608.03
2023-05-29T20:40:04.832Z,101615.09
2023-05-29T20:42:09.617Z,101617.03
2023-05-29T20:44:12.501Z,101614.34
2023-05-29T20:46:14.501Z,101622.38
2023-05-29T20:48:16.153Z,101622.47
2023-05-29T20:50:18.211Z,101618.94
2023-05-29T20:52:19.840Z,101632.41
2023-05-29T20:54:21.683Z,101621.72
2023-05-29T20:56:23.339Z,101628.03
2023-05-29T20:58:25.040Z,101627.19
2023-05-29T21:00:28.190Z,101619.25
2023-05-29T21:02:29.916Z,101617.47
2023-05-29T21:04:31.615Z,101608.69
2023-05-29T21:06:33.246Z,101622.91
2023-05-29T21:08:35.171Z,101615.84
2023-05-29T21:10:36.773Z,101623.88
2023-05-29T21:12:38.598Z,101625.78
2023-05-29T21:14:40.198Z,101620.44
2023-05-29T21:16:41.966Z,101637.31
2023-05-29T21:18:43.583Z,101622.25
2023-05-29T21:20:45.445Z,101619.72
2023-05-29T21:22:47.303Z,101626.00
2023-05-29T21:24:49.067Z,101620.75
2023-05-29T21:26:50.684Z,101628.66
2023-05-29T21:28:52.237Z,101625.25
2023-05-29T21:30:53.876Z,101627.06
2023-05-29T21:32:55.503Z,101635.06
2023-05-29T21:34:58.552Z,101644.06
2023-05-29T21:37:00.836Z,101636.16
2023-05-29T21:39:02.496Z,101636.16
2023-05-29T21:41:05.724Z,101631.75
2023-05-29T21:43:07.660Z,101641.50
2023-05-29T21:45:09.979Z,101629.97
2023-05-29T21:47:12.345Z,101629.97
2023-05-29T21:49:14.002Z,101629.22
2023-05-29T21:51:15.883Z,101633.69
2023-05-29T21:53:19.876Z,101640.00
2023-05-29T21:55:21.778Z,101634.63
2023-05-29T21:57:23.572Z,101631.25
2023-05-29T21:59:25.880Z,101637.44
2023-05-29T22:01:28.489Z,101636.59
2023-05-29T22:03:30.506Z,101643.75
2023-05-29T22:05:32.258Z,101634.00
2023-05-29T22:07:33.850Z,101643.09
2023-05-29T22:09:36.669Z,101639.47
2023-05-29T22:11:39.156Z,101635.09
2023-05-29T22:13:41.148Z,101648.50
2023-05-29T22:15:43.033Z,101638.78
2023-05-29T22:17:46.915Z,101656.66
2023-05-29T22:19:48.917Z,101655.75
2023-05-29T22:21:50.557Z,101649.56
2023-05-29T22:23:52.940Z,101654.19
2023-05-29T22:25:54.711Z,101648.72
2023-05-29T22:27:56.787Z,101645.28
2023-05-29T22:29:58.415Z,101637.38
2023-05-29T22:32:00.095Z,101643.59
2023-05-29T22:34:02.103Z,101638.34
2023-05-29T22:36:04.222Z,101652.66
2023-05-29T22:38:06.260Z,101651.81
2023-05-29T22:40:11.063Z,101653.75
2023-05-29T22:42:12.681Z,101652.00
2023-05-29T22:44:14.490Z,101650.19
2023-05-29T22:46:16.437Z,101657.34
2023-05-29T22:48:19.800Z,101656.50
2023-05-29T22:50:21.550Z,101664.63
2023-05-29T22:52:23.140Z,101662.91
2023-05-29T22:54:24.830Z,101669.09
2023-05-29T22:56:29.196Z,101663.75
2023-05-29T22:58:31.102Z,101668.38
2023-05-29T23:00:37.150Z,101664.84
2023-05-29T23:02:40.113Z,101673.78
2023-05-29T23:04:42.637Z,101665.78
2023-05-29T23:06:45.476Z,101680.97
2023-05-29T23:08:47.207Z,101684.69
2023-05-29T23:10:48.940Z,101668.66
2023-05-29T23:12:50.779Z,101670.47
2023-05-29T23:14:53.272Z,101675.81
2023-05-29T23:16:56.165Z,101673.25
2023-05-29T23:18:58.049Z,101674.19
2023-05-29T23:20:59.879Z,101665.34
2023-05-29T23:23:01.821Z,101660.09